createdAt,value
2022-10-25T00:01:36.738Z,97316.56
2022-10-25T00:04:03.245Z,97316.34
2022-10-25T00:06:29.661Z,97287.72
2022-10-25T00:08:56.215Z,97298.34
2022-10-25T00:11:25.432Z,97302.03
2022-10-25T00:13:54.664Z,97313.91
2022-10-25T00:16:27.206Z,97314.75
2022-10-25T00:18:54.052Z,97269.06
2022-10-25T00:21:20.843Z,97311.06
2022-10-25T00:23:48.061Z,97311.47
2022-10-25T00:26:14.554Z,97297.91
2022-10-25T00:28:41.558Z,97328.22
2022-10-25T00:31:10.607Z,97348.28
2022-10-25T00:33:37.889Z,97329.03
2022-10-25T00:36:06.211Z,97418.84
2022-10-25T00:38:32.871Z,97511.63
2022-10-25T00:40:59.784Z,97489.06
2022-10-25T00:43:41.394Z,97510.84
2022-10-25T00:46:20.242Z,97503.47
2022-10-25T00:49:15.958Z,97512.44
2022-10-25T00:51:49.841Z,97503.84
2022-10-25T00:56:59.324Z,97536.19
2022-10-25T00:59:28.096Z,97523.31
2022-10-25T01:01:56.164Z,97515.91
2022-10-25T01:04:27.519Z,97537.84
2022-10-25T01:06:54.471Z,97482.91
2022-10-25T01:09:24.840Z,97523.50
2022-10-25T01:11:51.250Z,97513.81
2022-10-25T01:14:18.154Z,97504.25
2022-10-25T01:17:13.570Z,97518.31
2022-10-25T01:20:17.387Z,97508.72
2022-10-25T01:22:59.717Z,97524.25
2022-10-25T01:25:56.980Z,97525.63
2022-10-25T01:28:44.745Z,97554.44
2022-10-25T01:31:24.279Z,97561.38
2022-10-25T01:34:09.344Z,97557.94
2022-10-25T01:36:56.577Z,97561.56
2022-10-25T01:39:29.286Z,97562.97
2022-10-25T01:42:06.898Z,97562.75
2022-10-25T01:44:40.314Z,97563.81
2022-10-25T01:47:17.504Z,97564.38
2022-10-25T01:50:05.082Z,97567.03
2022-10-25T01:52:31.553Z,97558.81
2022-10-25T01:54:58.022Z,97557.59
2022-10-25T01:57:38.433Z,97549.00
2022-10-25T02:00:09.964Z,97563.28
2022-10-25T02:02:52.009Z,97566.72
2022-10-25T02:05:30.190Z,97582.03
2022-10-25T02:08:02.938Z,97570.59
2022-10-25T02:10:42.411Z,97580.84
2022-10-25T02:13:23.083Z,97574.97
2022-10-25T02:16:10.935Z,97582.34
2022-10-25T02:18:41.342Z,97583.50
2022-10-25T02:21:10.759Z,97583.38
2022-10-25T02:23:38.058Z,97588.84
2022-10-25T02:26:08.870Z,97575.53
2022-10-25T02:28:40.038Z,97580.63
2022-10-25T02:31:10.171Z,97558.97
2022-10-25T02:33:37.740Z,97575.03
2022-10-25T02:36:05.646Z,97576.44
2022-10-25T02:38:32.819Z,97581.31
2022-10-25T02:41:01.919Z,97583.28
2022-10-25T02:45:55.607Z,97584.34
2022-10-25T02:48:22.012Z,97582.84
2022-10-25T02:50:49.111Z,97595.91
2022-10-25T02:53:15.488Z,97593.91
2022-10-25T02:55:41.940Z,97595.91
2022-10-25T02:58:08.340Z,97630.78
2022-10-25T03:00:34.738Z,97630.66
2022-10-25T03:03:01.157Z,97622.53
2022-10-25T03:05:27.566Z,97625.72
2022-10-25T03:07:53.962Z,97632.72
2022-10-25T03:10:20.378Z,97647.91
2022-10-25T03:12:47.092Z,97637.59
2022-10-25T03:15:13.760Z,97639.69
2022-10-25T03:17:40.176Z,97638.38
2022-10-25T03:20:07.643Z,97657.25
2022-10-25T03:22:34.801Z,97662.78
2022-10-25T03:25:01.441Z,97660.69
2022-10-25T03:27:27.894Z,97657.06
2022-10-25T03:29:54.844Z,97652.03
2022-10-25T03:32:21.211Z,97655.25
2022-10-25T03:34:47.648Z,97669.53
2022-10-25T03:37:14.048Z,97666.25
2022-10-25T03:39:40.462Z,97658.91
2022-10-25T03:42:06.978Z,97662.31
2022-10-25T03:44:33.454Z,97657.66
2022-10-25T03:46:59.853Z,97640.91
2022-10-25T03:49:26.601Z,97664.97
2022-10-25T03:51:57.070Z,97670.66
2022-10-25T03:54:29.134Z,97667.38
2022-10-25T03:56:55.871Z,97675.59
2022-10-25T03:59:22.287Z,97658.84
2022-10-25T04:01:48.938Z,97677.38
2022-10-25T04:04:15.391Z,97678.00
2022-10-25T04:06:41.764Z,97649.97
2022-10-25T04:09:08.259Z,97685.00
2022-10-25T04:11:34.667Z,97663.50
2022-10-25T04:14:01.036Z,97687.88
2022-10-25T04:16:27.494Z,97682.09
2022-10-25T04:18:54.270Z,97684.75
2022-10-25T04:21:21.674Z,97694.44
2022-10-25T04:23:49.468Z,97680.47
2022-10-25T04:26:18.876Z,97698.88
2022-10-25T04:28:50.381Z,97709.50
2022-10-25T04:31:17.085Z,97703.72
2022-10-25T04:33:46.502Z,97699.69
2022-10-25T04:36:15.267Z,97670.88
2022-10-25T04:38:41.694Z,97681.09
2022-10-25T04:41:09.837Z,97691.19
2022-10-25T04:43:37.231Z,97680.72
2022-10-25T04:46:03.853Z,97701.31
2022-10-25T04:48:30.260Z,97684.84
2022-10-25T04:51:00.150Z,97677.91
2022-10-25T04:53:26.864Z,97692.81
2022-10-25T04:56:04.886Z,97700.53
2022-10-25T04:58:31.760Z,97699.31
2022-10-25T05:01:04.120Z,97678.72
2022-10-25T05:03:30.716Z,97705.00
2022-10-25T05:06:12.678Z,97694.00
2022-10-25T05:08:40.690Z,97699.88
2022-10-25T05:11:08.634Z,97695.97
2022-10-25T05:13:36.619Z,97717.19
2022-10-25T05:16:03.747Z,97713.22
2022-10-25T05:18:31.909Z,97719.94
2022-10-25T05:21:00.679Z,97724.00
2022-10-25T05:23:28.190Z,97729.00
2022-10-25T05:26:21.111Z,97711.97
2022-10-25T05:28:49.536Z,97720.03
2022-10-25T05:31:21.560Z,97717.38
2022-10-25T05:33:52.744Z,97720.03
2022-10-25T05:36:19.758Z,97734.41
2022-10-25T05:38:46.341Z,97731.03
2022-10-25T05:41:15.174Z,97723.78
2022-10-25T05:43:43.379Z,97725.72
2022-10-25T05:46:15.295Z,97739.91
2022-10-25T05:48:47.318Z,97723.81
2022-10-25T05:54:11.271Z,97743.19
2022-10-25T05:56:38.684Z,97720.66
2022-10-25T05:59:10.112Z,97728.53
2022-10-25T06:01:38.949Z,97730.91
2022-10-25T06:04:06.275Z,97721.81
2022-10-25T06:06:33.980Z,97702.50
2022-10-25T06:09:01.328Z,97745.75
2022-10-25T06:11:29.028Z,97738.56
2022-10-25T06:13:55.601Z,97758.31
2022-10-25T06:16:22.452Z,97768.66
2022-10-25T06:18:49.100Z,97766.47
2022-10-25T06:21:21.193Z,97768.47
2022-10-25T06:23:48.538Z,97791.81
2022-10-25T06:26:17.723Z,97777.09
2022-10-25T06:28:44.314Z,97772.50
2022-10-25T06:31:16.289Z,97768.81
2022-10-25T06:33:43.538Z,97779.38
2022-10-25T06:36:14.816Z,97765.91
2022-10-25T06:38:41.213Z,97785.50
2022-10-25T06:41:12.438Z,97776.25
2022-10-25T06:43:38.941Z,97787.25
2022-10-25T06:46:06.532Z,97783.47
2022-10-25T06:48:33.046Z,97779.91
2022-10-25T06:51:04.433Z,97796.56
2022-10-25T06:53:31.640Z,97808.38
2022-10-25T06:56:09.166Z,97791.88
2022-10-25T06:58:38.454Z,97799.16
2022-10-25T07:01:11.473Z,97824.06
2022-10-25T07:03:38.413Z,97836.13
2022-10-25T07:06:07.295Z,97842.09
2022-10-25T07:08:34.977Z,97847.66
2022-10-25T07:11:01.484Z,97823.59
2022-10-25T07:13:28.208Z,97845.63
2022-10-25T07:16:02.275Z,97807.75
2022-10-25T07:18:30.215Z,97857.44
2022-10-25T07:21:05.228Z,97832.72
2022-10-25T07:23:32.280Z,97843.50
2022-10-25T07:25:59.158Z,97850.09
2022-10-25T07:28:26.740Z,97862.38
2022-10-25T07:30:53.220Z,97866.78
2022-10-25T07:33:20.419Z,97857.59
2022-10-25T07:36:09.708Z,97847.78
2022-10-25T07:38:37.352Z,97855.81
2022-10-25T07:41:04.204Z,97839.50
2022-10-25T07:43:30.874Z,97854.59
2022-10-25T07:45:57.719Z,97854.19
2022-10-25T07:48:24.199Z,97848.50
2022-10-25T07:50:50.673Z,97846.16
2022-10-25T07:53:17.092Z,97825.84
2022-10-25T07:55:43.503Z,97849.44
2022-10-25T07:58:11.266Z,97837.31
2022-10-25T08:00:37.894Z,97827.59
2022-10-25T08:03:04.476Z,97819.63
2022-10-25T08:05:30.923Z,97814.44
2022-10-25T08:07:57.310Z,97810.50
2022-10-25T08:10:23.798Z,97807.84
2022-10-25T08:12:50.580Z,97792.25
2022-10-25T08:15:17.742Z,97796.34
2022-10-25T08:17:44.140Z,97786.44
2022-10-25T08:20:10.798Z,97777.59
2022-10-25T08:22:37.243Z,97798.63
2022-10-25T08:25:05.318Z,97787.03
2022-10-25T08:27:32.116Z,97760.56
2022-10-25T08:29:58.663Z,97708.75
2022-10-25T08:32:25.079Z,97700.66
2022-10-25T08:34:51.644Z,97686.00
2022-10-25T08:37:18.176Z,97669.50
2022-10-25T08:39:44.970Z,97684.59
2022-10-25T08:42:22.634Z,97687.03
2022-10-25T08:44:58.826Z,97698.13
2022-10-25T08:47:34.738Z,97674.22
2022-10-25T08:50:35.325Z,97703.78
2022-10-25T08:53:06.468Z,97710.56
2022-10-25T08:55:41.748Z,97712.38
2022-10-25T08:58:23.572Z,97718.13
2022-10-25T09:00:50.026Z,97724.25
2022-10-25T09:03:25.580Z,97727.06
2022-10-25T09:06:27.252Z,97726.25
2022-10-25T09:09:18.262Z,97725.25
2022-10-25T09:12:09.358Z,97686.44
2022-10-25T09:14:55.042Z,97718.38
2022-10-25T09:17:26.188Z,97714.16
2022-10-25T09:20:04.838Z,97732.78
2022-10-25T09:22:57.281Z,97740.03
2022-10-25T09:25:46.955Z,97759.06
2022-10-25T09:28:21.260Z,97803.16
2022-10-25T09:30:49.744Z,97835.69
2022-10-25T09:33:19.897Z,97877.91
2022-10-25T09:35:48.730Z,97950.75
2022-10-25T09:38:25.398Z,97890.88
2022-10-25T09:41:01.240Z,97948.41
2022-10-25T09:43:35.187Z,97930.31
2022-10-25T09:46:08.299Z,97874.09
2022-10-25T09:48:50.639Z,97892.00
2022-10-25T09:51:29.469Z,97909.53
2022-10-25T09:53:57.238Z,97959.91
2022-10-25T09:56:23.803Z,98000.94
2022-10-25T09:58:50.227Z,98073.25
2022-10-25T10:01:26.635Z,98118.78
2022-10-25T10:03:55.882Z,98068.16
2022-10-25T10:06:37.862Z,98109.94
2022-10-25T10:09:07.652Z,98083.22
2022-10-25T10:11:35.810Z,98110.50
2022-10-25T10:14:23.314Z,98184.16
2022-10-25T10:16:53.843Z,98180.13
2022-10-25T10:19:30.054Z,98122.03
2022-10-25T10:22:02.745Z,98101.47
2022-10-25T10:24:33.058Z,98084.00
2022-10-25T10:27:02.564Z,98105.94
2022-10-25T10:29:31.658Z,98059.88
2022-10-25T10:32:01.629Z,98036.72
2022-10-25T10:34:53.530Z,97990.81
2022-10-25T10:37:26.065Z,97936.91
2022-10-25T10:40:03.004Z,97888.66
2022-10-25T10:42:42.801Z,97893.81
2022-10-25T10:45:09.227Z,97906.16
2022-10-25T10:47:41.759Z,97934.88
2022-10-25T10:50:25.732Z,98016.88
2022-10-25T10:53:00.341Z,98082.69
2022-10-25T10:55:36.499Z,98116.38
2022-10-25T10:58:14.596Z,98110.53
2022-10-25T11:00:49.961Z,98107.22
2022-10-25T11:03:35.260Z,98086.66
2022-10-25T11:06:01.857Z,98117.53
2022-10-25T11:08:28.274Z,98137.56
2022-10-25T11:11:14.973Z,98097.53
2022-10-25T11:14:04.037Z,98014.50
2022-10-25T11:16:56.212Z,98043.72
2022-10-25T11:19:39.310Z,98037.38
2022-10-25T11:22:23.258Z,98040.16
2022-10-25T11:25:00.216Z,98125.78
2022-10-25T11:27:51.960Z,98134.16
2022-10-25T11:30:22.951Z,98119.94
2022-10-25T11:33:16.581Z,98101.06
2022-10-25T11:36:09.284Z,98127.72
2022-10-25T11:38:49.000Z,98117.44
2022-10-25T11:41:37.049Z,98130.31
2022-10-25T11:44:23.186Z,98157.53
2022-10-25T11:47:15.782Z,98128.88
2022-10-25T11:49:57.246Z,98111.66
2022-10-25T11:52:42.428Z,98125.41
2022-10-25T11:55:38.938Z,98105.38
2022-10-25T11:58:34.343Z,98111.53
2022-10-25T12:01:35.844Z,98098.75
2022-10-25T12:04:12.087Z,98103.66
2022-10-25T12:06:59.730Z,98115.94
2022-10-25T12:09:29.165Z,98089.22
2022-10-25T12:12:04.044Z,98095.75
2022-10-25T12:14:40.756Z,98017.34
2022-10-25T12:17:23.408Z,98121.91
2022-10-25T12:19:51.650Z,98125.28
2022-10-25T12:22:26.247Z,98144.94
2022-10-25T12:25:00.305Z,98274.41
2022-10-25T12:27:29.568Z,98259.16
2022-10-25T12:30:05.898Z,98294.56
2022-10-25T12:32:35.520Z,98404.50
2022-10-25T12:35:06.912Z,98447.09
2022-10-25T12:37:41.115Z,98442.25
2022-10-25T12:40:15.878Z,98438.03
2022-10-25T12:42:50.513Z,98480.53
2022-10-25T12:45:29.158Z,98376.63
2022-10-25T12:48:17.534Z,98397.44
2022-10-25T12:51:02.678Z,98371.66
2022-10-25T12:53:35.148Z,98366.72
2022-10-25T12:56:26.324Z,98315.06
2022-10-25T12:59:30.979Z,98358.16
2022-10-25T13:02:03.503Z,98379.94
2022-10-25T13:04:40.414Z,98380.56
2022-10-25T13:07:08.078Z,98407.69
2022-10-25T13:09:37.361Z,98408.72
2022-10-25T13:12:19.248Z,98460.31
2022-10-25T13:14:50.574Z,98432.66
2022-10-25T13:17:16.967Z,98421.78
2022-10-25T13:20:00.554Z,98422.91
2022-10-25T13:22:40.101Z,98353.09
2022-10-25T13:25:12.439Z,98336.84
2022-10-25T13:27:40.742Z,98319.13
2022-10-25T13:30:07.150Z,98311.28
2022-10-25T13:32:36.548Z,98306.31
2022-10-25T13:35:23.102Z,98315.00
2022-10-25T13:38:09.259Z,98288.53
2022-10-25T13:40:38.369Z,98316.56
2022-10-25T13:43:26.136Z,98303.94
2022-10-25T13:45:56.186Z,98279.31
2022-10-25T13:48:34.818Z,98297.34
2022-10-25T13:51:11.712Z,98316.75
2022-10-25T13:53:53.205Z,98317.34
2022-10-25T13:56:22.305Z,98300.94
2022-10-25T13:58:50.521Z,98315.13
2022-10-25T14:01:17.040Z,98316.34
2022-10-25T14:03:54.338Z,98304.34
2022-10-25T14:06:28.167Z,98300.66
2022-10-25T14:09:16.426Z,98314.88
2022-10-25T14:12:01.058Z,98322.84
2022-10-25T14:14:31.279Z,98334.56
2022-10-25T14:17:08.440Z,98323.47
2022-10-25T14:19:41.895Z,98319.50
2022-10-25T14:22:31.958Z,98312.91
2022-10-25T14:25:02.841Z,98322.78
2022-10-25T14:27:35.220Z,98325.09
2022-10-25T14:30:34.228Z,98310.53
2022-10-25T14:33:03.748Z,98278.00
2022-10-25T14:35:34.532Z,98302.53
2022-10-25T14:38:03.473Z,98271.88
2022-10-25T14:40:31.244Z,98286.44
2022-10-25T14:43:22.261Z,98285.31
2022-10-25T14:46:15.965Z,98279.63
2022-10-25T14:48:46.733Z,98304.28
2022-10-25T14:51:22.810Z,98292.44
2022-10-25T14:53:55.274Z,98316.34
2022-10-25T14:56:26.804Z,98297.25
2022-10-25T14:58:54.338Z,98313.72
2022-10-25T15:01:22.494Z,98290.97
2022-10-25T15:03:51.949Z,98305.72
2022-10-25T15:06:22.106Z,98295.91
2022-10-25T15:08:51.915Z,98305.72
2022-10-25T15:11:21.467Z,98293.00
2022-10-25T15:13:49.857Z,98291.50
2022-10-25T15:16:36.588Z,98288.44
2022-10-25T15:19:23.249Z,98283.88
2022-10-25T15:21:52.065Z,98281.91
2022-10-25T15:24:22.929Z,98281.69
2022-10-25T15:26:55.728Z,98273.91
2022-10-25T15:29:43.876Z,98251.38
2022-10-25T15:32:19.232Z,98250.81
2022-10-25T15:34:48.627Z,98259.63
2022-10-25T15:37:17.238Z,98265.44
2022-10-25T15:39:46.383Z,98263.16
2022-10-25T15:42:15.352Z,98245.13
2022-10-25T15:44:42.451Z,98232.28
2022-10-25T15:47:23.673Z,98234.81
2022-10-25T15:49:53.256Z,98237.25
2022-10-25T15:52:20.308Z,98232.38
2022-10-25T15:54:47.051Z,98212.94
2022-10-25T15:57:13.452Z,98210.03
2022-10-25T15:59:39.869Z,98173.22
2022-10-25T16:02:17.300Z,98161.72
2022-10-25T16:04:43.832Z,98147.72
2022-10-25T16:07:13.959Z,98136.47
2022-10-25T16:09:40.405Z,98118.31
2022-10-25T16:12:09.078Z,98103.16
2022-10-25T16:14:36.626Z,98105.19
2022-10-25T16:17:03.246Z,98097.59
2022-10-25T16:19:31.518Z,98079.69
2022-10-25T16:21:59.269Z,98063.44
2022-10-25T16:24:25.728Z,97990.72
2022-10-25T16:26:52.715Z,97912.94
2022-10-25T16:29:21.646Z,97831.31
2022-10-25T16:31:48.623Z,97811.00
2022-10-25T16:34:19.357Z,97790.63
2022-10-25T16:36:48.037Z,97768.72
2022-10-25T16:39:15.090Z,97754.34
2022-10-25T16:41:44.277Z,97747.41
2022-10-25T16:44:12.686Z,97739.47
2022-10-25T16:46:40.047Z,97735.34
2022-10-25T16:49:06.690Z,97684.34
2022-10-25T16:51:34.765Z,97716.38
2022-10-25T16:54:01.675Z,97703.38
2022-10-25T16:56:28.230Z,97763.75
2022-10-25T16:58:54.636Z,97843.53
2022-10-25T17:01:26.409Z,97999.41
2022-10-25T17:03:54.016Z,98029.63
2022-10-25T17:06:41.331Z,98055.56
2022-10-25T17:09:07.927Z,98059.56
2022-10-25T17:11:34.380Z,98050.06
2022-10-25T17:14:00.736Z,98047.56
2022-10-25T17:16:27.205Z,98048.59
2022-10-25T17:18:53.557Z,98044.28
2022-10-25T17:21:19.940Z,98028.13
2022-10-25T17:23:46.369Z,98024.38
2022-10-25T17:26:13.901Z,98022.78
2022-10-25T17:28:43.953Z,98022.78
2022-10-25T17:31:12.890Z,98018.00
2022-10-25T17:33:39.393Z,98011.06
2022-10-25T17:36:11.269Z,98009.72
2022-10-25T17:38:37.781Z,98007.28
2022-10-25T17:41:04.315Z,97991.88
2022-10-25T17:43:31.149Z,97979.84
2022-10-25T17:46:05.159Z,98002.19
2022-10-25T17:48:31.723Z,97986.44
2022-10-25T17:51:06.269Z,98003.91
2022-10-25T17:53:32.985Z,98001.25
2022-10-25T17:56:10.104Z,98008.28
2022-10-25T17:58:36.544Z,98011.25
2022-10-25T18:01:04.902Z,98003.66
2022-10-25T18:03:32.310Z,97993.72
2022-10-25T18:06:10.558Z,98010.56
2022-10-25T18:08:37.448Z,98011.44
2022-10-25T18:11:14.640Z,98014.91
2022-10-25T18:13:41.825Z,98015.94
2022-10-25T18:16:10.297Z,98017.56
2022-10-25T18:18:37.562Z,98008.28
2022-10-25T18:21:09.297Z,98016.75
2022-10-25T18:23:36.457Z,98015.19
2022-10-25T18:26:04.886Z,98016.75
2022-10-25T18:28:35.190Z,98018.28
2022-10-25T18:31:07.145Z,98016.63
2022-10-25T18:33:35.583Z,98022.38
2022-10-25T18:36:06.251Z,98006.25
2022-10-25T18:38:33.480Z,98015.88
2022-10-25T18:41:00.122Z,98020.84
2022-10-25T18:43:26.834Z,98000.28
2022-10-25T18:45:57.671Z,97995.53
2022-10-25T18:48:24.912Z,97973.38
2022-10-25T18:50:51.429Z,97973.56
2022-10-25T18:53:18.602Z,97971.84
2022-10-25T18:55:51.231Z,97965.59
2022-10-25T18:58:17.788Z,97951.69
2022-10-25T19:00:44.888Z,97942.72
2022-10-25T19:03:12.421Z,97941.44
2022-10-25T19:05:40.129Z,97943.31
2022-10-25T19:08:08.103Z,97921.72
2022-10-25T19:10:41.602Z,97896.91
2022-10-25T19:13:11.741Z,97890.50
2022-10-25T19:15:38.106Z,97894.63
2022-10-25T19:18:04.605Z,97886.38
2022-10-25T19:20:31.081Z,97864.84
2022-10-25T19:22:58.734Z,97844.41
2022-10-25T19:25:29.528Z,97832.34
2022-10-25T19:27:56.423Z,97805.94
2022-10-25T19:30:23.024Z,97805.09
2022-10-25T19:32:49.914Z,97783.28
2022-10-25T19:35:16.659Z,97762.16
2022-10-25T19:37:43.128Z,97750.56
2022-10-25T19:40:10.621Z,97736.22
2022-10-25T19:42:37.568Z,97692.78
2022-10-25T19:45:05.404Z,97670.31
2022-10-25T19:47:33.988Z,97648.66
2022-10-25T19:50:00.414Z,97623.28
2022-10-25T19:52:26.834Z,97600.50
2022-10-25T19:54:53.344Z,97577.56
2022-10-25T19:57:19.805Z,97531.06
2022-10-25T19:59:46.184Z,97539.63
2022-10-25T20:02:12.880Z,97530.38
2022-10-25T20:04:39.403Z,97507.63
2022-10-25T20:07:05.858Z,97479.34
2022-10-25T20:09:32.471Z,97461.69
2022-10-25T20:11:59.040Z,97439.13
2022-10-25T20:14:25.709Z,97444.63
2022-10-25T20:16:52.091Z,97412.41
2022-10-25T20:19:18.527Z,97391.84
2022-10-25T20:21:44.920Z,97369.69
2022-10-25T20:24:11.354Z,97359.81
2022-10-25T20:26:40.895Z,97360.50
2022-10-25T20:29:16.944Z,97341.13
2022-10-25T20:31:46.825Z,97327.78
2022-10-25T20:34:13.222Z,97339.78
2022-10-25T20:36:39.697Z,97317.44
2022-10-25T20:39:06.093Z,97275.84
2022-10-25T20:41:35.343Z,97286.97
2022-10-25T20:44:05.864Z,97296.38
2022-10-25T20:46:33.364Z,97288.16
2022-10-25T20:49:00.769Z,97275.00
2022-10-25T20:51:27.320Z,97271.38
2022-10-25T20:53:54.068Z,97244.03
2022-10-25T20:56:22.069Z,97235.13
2022-10-25T20:58:48.623Z,97225.88
2022-10-25T21:01:15.581Z,97201.84
2022-10-25T21:03:42.437Z,97201.13
2022-10-25T21:06:14.189Z,97192.22
2022-10-25T21:08:40.605Z,97166.41
2022-10-25T21:11:09.921Z,97204.34
2022-10-25T21:13:36.996Z,97184.72
2022-10-25T21:16:07.704Z,97174.94
2022-10-25T21:18:36.014Z,97197.47
2022-10-25T21:21:05.322Z,97202.94
2022-10-25T21:23:32.156Z,97194.66
2022-10-25T21:26:06.450Z,97196.66
2022-10-25T21:28:37.688Z,97190.59
2022-10-25T21:31:06.170Z,97202.81
2022-10-25T21:33:33.054Z,97202.06
2022-10-25T21:36:11.433Z,97190.16
2022-10-25T21:38:38.341Z,97177.66
2022-10-25T21:41:10.774Z,97177.66
2022-10-25T21:43:40.648Z,97123.59
2022-10-25T21:46:07.106Z,97138.50
2022-10-25T21:48:34.736Z,97132.25
2022-10-25T21:51:01.667Z,97106.69
2022-10-25T21:53:28.399Z,97122.56
2022-10-25T21:56:15.836Z,97114.94
2022-10-25T21:58:44.389Z,97133.78
2022-10-25T22:01:18.005Z,97123.88
2022-10-25T22:03:44.440Z,97145.72
2022-10-25T22:06:13.672Z,97144.06
2022-10-25T22:08:40.290Z,97142.47
2022-10-25T22:11:21.789Z,97150.66
2022-10-25T22:13:48.739Z,97159.97
2022-10-25T22:16:17.961Z,97165.88
2022-10-25T22:18:49.043Z,97161.59
2022-10-25T22:21:15.509Z,97148.44
2022-10-25T22:23:41.998Z,97180.72
2022-10-25T22:26:11.158Z,97178.75
2022-10-25T22:28:40.700Z,97197.22
2022-10-25T22:31:16.850Z,97197.22
2022-10-25T22:33:44.791Z,97216.63
2022-10-25T22:36:16.388Z,97207.16
2022-10-25T22:38:43.363Z,97224.22
2022-10-25T22:41:12.488Z,97224.56
2022-10-25T22:43:39.754Z,97226.03
2022-10-25T22:46:08.799Z,97200.88
2022-10-25T22:48:37.187Z,97219.47
2022-10-25T22:51:04.666Z,97221.25
2022-10-25T22:53:31.953Z,97221.09
2022-10-25T22:56:14.528Z,97230.13
2022-10-25T22:58:42.753Z,97232.66
2022-10-25T23:01:14.141Z,97239.38
2022-10-25T23:03:42.959Z,97247.81
2022-10-25T23:06:12.088Z,97245.00
2022-10-25T23:08:38.691Z,97253.72
2022-10-25T23:11:09.729Z,97257.19
2022-10-25T23:13:36.294Z,97223.94
2022-10-25T23:16:03.744Z,97239.91
2022-10-25T23:18:30.188Z,97250.91
2022-10-25T23:20:58.816Z,97249.31
2022-10-25T23:23:26.100Z,97243.22
2022-10-25T23:25:53.231Z,97228.25
2022-10-25T23:28:20.770Z,97221.63
2022-10-25T23:30:47.190Z,97218.19
2022-10-25T23:33:13.871Z,97230.88
2022-10-25T23:35:42.438Z,97239.75
2022-10-25T23:38:12.764Z,97238.91
2022-10-25T23:40:41.105Z,97247.63
2022-10-25T23:43:08.411Z,97249.44
2022-10-25T23:45:34.787Z,97254.72
2022-10-25T23:48:04.409Z,97248.78
2022-10-25T23:50:30.860Z,97260.16
2022-10-25T23:52:57.266Z,97267.06
2022-10-25T23:55:24.010Z,97252.91
2022-10-25T23:57:56.353Z,97252.06
